Hlavní strana
METAR-TAF:

METAR-TAF

Letiště :

Maputo, Mosambik

zeměpisná šířka: 25-55S, zeměpisná délka: 032-34E, výška: 39 m

Aktuální stav počasí

Zpráva byla vytvořena před 1 hodinou a 51 minutami, v 00:00 UTC
vítr z různých směrů 1 kt
Teplota 20°C
Vlhkost vzduchu 88%
Tlak 1015 hPa
Viditelnost 10 km a více
Žádná oblačnost pod 1500 m, nevyskytují se cumulonimby.

METAR: FQMA 260000Z VRB01KT CAVOK 20/18 Q1015 NOSIG

Čas: 03:51 (01:51 UTC)

Předpověď počasí

Zpráva byla vytvořena před 3 hodinami a 51 minutami, v 22:00 UTC
Předpověď platná od 26 v 00 UTC do 27 v 06 UTC
Západní vítr 7 kt
Viditelnost 10 km a více
Skoro jasno ve výšce 2500 ft
Změna
od 26 v 06 UTC do 26 v 08 UTC
Severní vítr 10 kt
Změna
od 26 v 12 UTC do 26 v 14 UTC
Východoseverovýchodní vítr 13 kt

TAF: FQMA 252200Z 2600/2706 28007KT 9999 FEW025 TX31/2613Z TN21/2603Z BECMG 2606/2608 36010KT BECMG 2612/2614 06013KT

Stav a předpovědi počasí z více než 4 000 letišť (zprávy METAR a TAF).

Červené a žluté tečky na mapě představují dostupné meteorologické stanice.

Když kurzor umístíte na tečku, zobrazí se název stanice.

Pak kliknutím zobrazíte stav a předpověď počasí.

Chcete-li změnit mapu, kliknutím na zelené tlačítko se znaménkem +mapu přiblížíte, kliknutím na zelené tlačítko se znaménkem – mapu oddálíte a kliknutím na zelené šipky přejdete na sousední mapy.


METAR-TAF: